sensor_id;sensor_type;location;lat;lon;timestamp;pressure;altitude;pressure_sealevel;temperature;humidity
3917;BME280;1973;50.518;7.318;2022-10-16T00:00:54;100490.09;;;15.07;100.00
3917;BME280;1973;50.518;7.318;2022-10-16T00:03:20;100492.25;;;15.05;100.00
3917;BME280;1973;50.518;7.318;2022-10-16T00:05:53;100498.56;;;15.01;100.00
3917;BME280;1973;50.518;7.318;2022-10-16T00:08:19;100498.81;;;14.99;100.00
3917;BME280;1973;50.518;7.318;2022-10-16T00:10:46;100493.78;;;14.96;100.00
3917;BME280;1973;50.518;7.318;2022-10-16T00:13:12;100507.66;;;14.96;100.00
3917;BME280;1973;50.518;7.318;2022-10-16T00:15:38;100498.47;;;14.96;100.00
3917;BME280;1973;50.518;7.318;2022-10-16T00:18:06;100499.56;;;14.95;100.00
3917;BME280;1973;50.518;7.318;2022-10-16T00:20:36;100502.56;;;14.93;100.00
3917;BME280;1973;50.518;7.318;2022-10-16T00:23:03;100510.91;;;14.93;100.00
3917;BME280;1973;50.518;7.318;2022-10-16T00:25:31;100508.13;;;14.93;100.00
3917;BME280;1973;50.518;7.318;2022-10-16T00:28:00;100512.59;;;14.94;100.00
3917;BME280;1973;50.518;7.318;2022-10-16T00:30:26;100517.56;;;14.92;100.00
3917;BME280;1973;50.518;7.318;2022-10-16T00:32:54;100508.41;;;14.92;100.00
3917;BME280;1973;50.518;7.318;2022-10-16T00:35:21;100510.31;;;14.91;100.00
3917;BME280;1973;50.518;7.318;2022-10-16T00:37:47;100508.41;;;14.92;100.00
3917;BME280;1973;50.518;7.318;2022-10-16T00:40:14;100525.03;;;14.92;100.00
3917;BME280;1973;50.518;7.318;2022-10-16T00:42:40;100532.22;;;14.93;100.00
3917;BME280;1973;50.518;7.318;2022-10-16T00:45:08;100537.78;;;14.93;100.00
3917;BME280;1973;50.518;7.318;2022-10-16T00:47:45;100516.94;;;14.90;100.00
3917;BME280;1973;50.518;7.318;2022-10-16T00:50:26;100520.56;;;14.91;100.00
3917;BME280;1973;50.518;7.318;2022-10-16T00:52:54;100527.47;;;14.88;100.00
3917;BME280;1973;50.518;7.318;2022-10-16T00:55:22;100512.50;;;14.89;100.00
3917;BME280;1973;50.518;7.318;2022-10-16T00:57:49;100509.38;;;14.86;100.00
3917;BME280;1973;50.518;7.318;2022-10-16T01:00:21;100514.44;;;14.89;100.00
3917;BME280;1973;50.518;7.318;2022-10-16T01:02:55;100518.31;;;14.88;100.00
3917;BME280;1973;50.518;7.318;2022-10-16T01:05:26;100516.88;;;14.85;100.00
3917;BME280;1973;50.518;7.318;2022-10-16T01:08:08;100526.00;;;14.86;100.00
3917;BME280;1973;50.518;7.318;2022-10-16T01:10:45;100530.47;;;14.87;100.00
3917;BME280;1973;50.518;7.318;2022-10-16T01:13:21;100522.16;;;14.87;100.00
3917;BME280;1973;50.518;7.318;2022-10-16T01:15:55;100521.91;;;14.88;100.00
3917;BME280;1973;50.518;7.318;2022-10-16T01:18:33;100530.22;;;14.88;100.00
3917;BME280;1973;50.518;7.318;2022-10-16T01:21:05;100528.03;;;14.90;100.00
3917;BME280;1973;50.518;7.318;2022-10-16T01:29:20;100522.50;;;14.90;100.00
3917;BME280;1973;50.518;7.318;2022-10-16T01:31:55;100537.19;;;14.91;100.00
3917;BME280;1973;50.518;7.318;2022-10-16T01:34:40;100531.88;;;14.89;100.00
3917;BME280;1973;50.518;7.318;2022-10-16T01:37:12;100505.84;;;14.90;100.00
3917;BME280;1973;50.518;7.318;2022-10-16T01:39:44;100525.25;;;14.90;100.00
3917;BME280;1973;50.518;7.318;2022-10-16T01:42:16;100530.81;;;14.90;100.00
3917;BME280;1973;50.518;7.318;2022-10-16T01:44:43;100543.81;;;14.90;100.00
3917;BME280;1973;50.518;7.318;2022-10-16T01:47:12;100538.28;;;14.90;100.00
3917;BME280;1973;50.518;7.318;2022-10-16T01:49:41;100546.59;;;14.90;100.00
3917;BME280;1973;50.518;7.318;2022-10-16T01:52:13;100546.34;;;14.91;100.00
3917;BME280;1973;50.518;7.318;2022-10-16T01:54:43;100546.34;;;14.91;100.00
3917;BME280;1973;50.518;7.318;2022-10-16T01:57:12;100548.53;;;14.89;100.00
3917;BME280;1973;50.518;7.318;2022-10-16T01:59:44;100545.75;;;14.89;100.00
3917;BME280;1973;50.518;7.318;2022-10-16T02:02:13;100544.09;;;14.88;100.00
3917;BME280;1973;50.518;7.318;2022-10-16T02:04:47;100546.88;;;14.88;100.00
3917;BME280;1973;50.518;7.318;2022-10-16T02:07:15;100543.47;;;14.86;100.00
3917;BME280;1973;50.518;7.318;2022-10-16T02:09:42;100563.72;;;14.87;100.00
3917;BME280;1973;50.518;7.318;2022-10-16T02:12:13;100565.41;;;14.88;100.00
3917;BME280;1973;50.518;7.318;2022-10-16T02:14:41;100569.88;;;14.89;100.00
3917;BME280;1973;50.518;7.318;2022-10-16T02:17:14;100574.06;;;14.91;100.00
3917;BME280;1973;50.518;7.318;2022-10-16T02:19:41;100552.75;;;14.92;100.00
3917;BME280;1973;50.518;7.318;2022-10-16T02:22:15;100552.25;;;14.95;100.00
3917;BME280;1973;50.518;7.318;2022-10-16T02:30:33;100563.00;;;14.91;100.00
3917;BME280;1973;50.518;7.318;2022-10-16T02:33:05;100568.53;;;14.91;100.00
3917;BME280;1973;50.518;7.318;2022-10-16T02:35:33;100563.00;;;14.91;100.00
3917;BME280;1973;50.518;7.318;2022-10-16T02:38:00;100567.19;;;14.94;100.00
3917;BME280;1973;50.518;7.318;2022-10-16T02:40:27;100561.41;;;14.95;100.00
3917;BME280;1973;50.518;7.318;2022-10-16T02:42:54;100564.50;;;14.99;100.00
3917;BME280;1973;50.518;7.318;2022-10-16T02:45:22;100564.25;;;15.00;100.00
3917;BME280;1973;50.518;7.318;2022-10-16T02:47:49;100552.91;;;15.02;100.00
3917;BME280;1973;50.518;7.318;2022-10-16T02:50:16;100554.59;;;15.03;100.00
3917;BME280;1973;50.518;7.318;2022-10-16T02:52:42;100563.78;;;15.03;100.00
3917;BME280;1973;50.518;7.318;2022-10-16T02:55:09;100575.94;;;15.02;100.00
3917;BME280;1973;50.518;7.318;2022-10-16T02:57:35;100590.88;;;15.01;100.00
3917;BME280;1973;50.518;7.318;2022-10-16T03:00:04;100569.31;;;15.03;100.00
3917;BME280;1973;50.518;7.318;2022-10-16T03:02:31;100559.03;;;15.04;100.00
3917;BME280;1973;50.518;7.318;2022-10-16T03:04:57;100558.22;;;15.03;100.00
3917;BME280;1973;50.518;7.318;2022-10-16T03:07:24;100571.59;;;15.06;100.00
3917;BME280;1973;50.518;7.318;2022-10-16T03:09:50;100573.28;;;15.07;100.00
3917;BME280;1973;50.518;7.318;2022-10-16T03:12:17;100552.75;;;15.08;100.00
3917;BME280;1973;50.518;7.318;2022-10-16T03:14:43;100563.00;;;15.08;100.00
3917;BME280;1973;50.518;7.318;2022-10-16T03:17:10;100564.44;;;15.10;100.00
3917;BME280;1973;50.518;7.318;2022-10-16T03:19:36;100565.03;;;15.13;100.00
3917;BME280;1973;50.518;7.318;2022-10-16T03:22:03;100583.34;;;15.14;100.00
3917;BME280;1973;50.518;7.318;2022-10-16T03:24:29;100586.69;;;15.16;100.00
3917;BME280;1973;50.518;7.318;2022-10-16T03:26:56;100598.41;;;15.18;100.00
3917;BME280;1973;50.518;7.318;2022-10-16T03:29:22;100595.13;;;15.21;100.00
3917;BME280;1973;50.518;7.318;2022-10-16T03:31:48;100596.81;;;15.22;100.00
3917;BME280;1973;50.518;7.318;2022-10-16T03:34:15;100593.75;;;15.23;100.00
3917;BME280;1973;50.518;7.318;2022-10-16T03:36:42;100599.31;;;15.23;100.00
3917;BME280;1973;50.518;7.318;2022-10-16T03:39:08;100587.38;;;15.23;100.00
3917;BME280;1973;50.518;7.318;2022-10-16T03:41:35;100574.63;;;15.22;100.00
3917;BME280;1973;50.518;7.318;2022-10-16T03:44:01;100570.72;;;15.23;100.00
3917;BME280;1973;50.518;7.318;2022-10-16T03:46:27;100587.38;;;15.23;100.00
3917;BME280;1973;50.518;7.318;2022-10-16T03:48:54;100592.91;;;15.23;100.00
3917;BME280;1973;50.518;7.318;2022-10-16T03:51:20;100601.25;;;15.23;100.00
3917;BME280;1973;50.518;7.318;2022-10-16T03:53:47;100592.91;;;15.23;100.00
3917;BME280;1973;50.518;7.318;2022-10-16T03:56:13;100598.47;;;15.23;100.00
3917;BME280;1973;50.518;7.318;2022-10-16T03:58:39;100602.94;;;15.24;100.00
3917;BME280;1973;50.518;7.318;2022-10-16T04:01:06;100601.84;;;15.25;100.00
3917;BME280;1973;50.518;7.318;2022-10-16T04:03:33;100596.88;;;15.27;100.00
3917;BME280;1973;50.518;7.318;2022-10-16T04:05:59;100595.78;;;15.28;100.00
3917;BME280;1973;50.518;7.318;2022-10-16T04:08:26;100597.47;;;15.29;100.00
3917;BME280;1973;50.518;7.318;2022-10-16T04:10:52;100609.41;;;15.29;100.00
3917;BME280;1973;50.518;7.318;2022-10-16T04:13:18;100617.47;;;15.31;100.00
3917;BME280;1973;50.518;7.318;2022-10-16T04:15:50;100608.56;;;15.29;100.00
3917;BME280;1973;50.518;7.318;2022-10-16T04:18:16;100614.97;;;15.29;100.00
3917;BME280;1973;50.518;7.318;2022-10-16T04:20:43;100603.03;;;15.29;100.00
3917;BME280;1973;50.518;7.318;2022-10-16T04:23:09;100607.72;;;15.28;100.00
3917;BME280;1973;50.518;7.318;2022-10-16T04:25:35;100589.41;;;15.27;100.00
3917;BME280;1973;50.518;7.318;2022-10-16T04:28:02;100598.00;;;15.26;100.00
3917;BME280;1973;50.518;7.318;2022-10-16T04:30:28;100597.47;;;15.29;100.00
3917;BME280;1973;50.518;7.318;2022-10-16T04:32:55;100596.41;;;15.30;100.00
3917;BME280;1973;50.518;7.318;2022-10-16T04:35:21;100616.38;;;15.32;100.00
3917;BME280;1973;50.518;7.318;2022-10-16T04:37:48;100620.84;;;15.33;100.00
3917;BME280;1973;50.518;7.318;2022-10-16T04:40:15;100620.34;;;15.36;100.00
3917;BME280;1973;50.518;7.318;2022-10-16T04:42:41;100630.69;;;15.40;100.00
3917;BME280;1973;50.518;7.318;2022-10-16T04:45:08;100631.03;;;15.44;100.00
3917;BME280;1973;50.518;7.318;2022-10-16T04:47:40;100623.88;;;15.48;100.00
3917;BME280;1973;50.518;7.318;2022-10-16T04:50:06;100621.72;;;15.50;100.00
3917;BME280;1973;50.518;7.318;2022-10-16T04:52:33;100617.34;;;15.54;100.00
3917;BME280;1973;50.518;7.318;2022-10-16T04:55:05;100620.69;;;15.56;100.00
3917;BME280;1973;50.518;7.318;2022-10-16T04:57:31;100631.56;;;15.57;100.00
3917;BME280;1973;50.518;7.318;2022-10-16T04:59:59;100623.56;;;15.61;100.00
3917;BME280;1973;50.518;7.318;2022-10-16T05:02:26;100625.25;;;15.62;100.00
3917;BME280;1973;50.518;7.318;2022-10-16T05:04:53;100639.72;;;15.64;100.00
3917;BME280;1973;50.518;7.318;2022-10-16T05:07:19;100652.50;;;15.65;100.00
3917;BME280;1973;50.518;7.318;2022-10-16T05:09:45;100650.31;;;15.67;100.00
3917;BME280;1973;50.518;7.318;2022-10-16T05:12:12;100635.34;;;15.68;100.00
3917;BME280;1973;50.518;7.318;2022-10-16T05:14:38;100639.53;;;15.71;100.00
3917;BME280;1973;50.518;7.318;2022-10-16T05:17:06;100633.16;;;15.70;100.00
3917;BME280;1973;50.518;7.318;2022-10-16T05:19:32;100633.16;;;15.70;100.00
3917;BME280;1973;50.518;7.318;2022-10-16T05:21:58;100634.25;;;15.69;100.00
3917;BME280;1973;50.518;7.318;2022-10-16T05:24:25;100627.09;;;15.73;100.00
3917;BME280;1973;50.518;7.318;2022-10-16T05:26:52;100622.41;;;15.74;100.00
3917;BME280;1973;50.518;7.318;2022-10-16T05:29:18;100629.59;;;15.75;100.00
3917;BME280;1973;50.518;7.318;2022-10-16T05:31:45;100626.59;;;15.76;100.00
3917;BME280;1973;50.518;7.318;2022-10-16T05:34:11;100628.53;;;15.76;100.00
3917;BME280;1973;50.518;7.318;2022-10-16T05:36:38;100641.03;;;15.78;100.00
3917;BME280;1973;50.518;7.318;2022-10-16T05:39:04;100651.66;;;15.81;100.00
3917;BME280;1973;50.518;7.318;2022-10-16T05:41:31;100649.69;;;15.82;100.00
3917;BME280;1973;50.518;7.318;2022-10-16T05:43:58;100651.66;;;15.81;100.00
3917;BME280;1973;50.518;7.318;2022-10-16T05:46:24;100653.09;;;15.84;100.00
3917;BME280;1973;50.518;7.318;2022-10-16T05:48:53;100649.47;;;15.83;100.00
3917;BME280;1973;50.518;7.318;2022-10-16T05:51:20;100667.19;;;15.82;100.00
3917;BME280;1973;50.518;7.318;2022-10-16T05:53:46;100653.84;;;15.79;100.00
3917;BME280;1973;50.518;7.318;2022-10-16T05:56:13;100663.84;;;15.80;100.00
3917;BME280;1973;50.518;7.318;2022-10-16T05:58:39;100662.78;;;15.81;100.00
3917;BME280;1973;50.518;7.318;2022-10-16T06:01:11;100670.81;;;15.83;100.00
3917;BME280;1973;50.518;7.318;2022-10-16T06:03:38;100673.38;;;15.84;100.00
3917;BME280;1973;50.518;7.318;2022-10-16T06:06:10;100671.16;;;15.86;100.00
3917;BME280;1973;50.518;7.318;2022-10-16T06:08:38;100671.16;;;15.86;100.00
3917;BME280;1973;50.518;7.318;2022-10-16T06:11:08;100670.66;;;15.89;100.00
3917;BME280;1973;50.518;7.318;2022-10-16T06:13:34;100672.34;;;15.90;100.00
3917;BME280;1973;50.518;7.318;2022-10-16T06:16:03;100678.50;;;15.92;100.00
3917;BME280;1973;50.518;7.318;2022-10-16T06:18:30;100687.63;;;15.93;100.00
3917;BME280;1973;50.518;7.318;2022-10-16T06:20:57;100686.81;;;15.92;100.00
3917;BME280;1973;50.518;7.318;2022-10-16T06:23:24;100695.50;;;15.96;100.00
3917;BME280;1973;50.518;7.318;2022-10-16T06:25:51;100694.66;;;15.95;100.00
3917;BME280;1973;50.518;7.318;2022-10-16T06:28:18;100696.31;;;15.96;100.00
3917;BME280;1973;50.518;7.318;2022-10-16T06:30:44;100694.97;;;15.99;100.00
3917;BME280;1973;50.518;7.318;2022-10-16T06:33:12;100700.25;;;16.00;100.00
3917;BME280;1973;50.518;7.318;2022-10-16T06:35:38;100701.94;;;16.01;100.00
3917;BME280;1973;50.518;7.318;2022-10-16T06:38:05;100706.66;;;16.01;100.00
3917;BME280;1973;50.518;7.318;2022-10-16T06:40:31;100701.94;;;16.01;100.00
3917;BME280;1973;50.518;7.318;2022-10-16T06:42:58;100706.66;;;16.01;100.00
3917;BME280;1973;50.518;7.318;2022-10-16T06:45:24;100703.63;;;16.02;100.00
3917;BME280;1973;50.518;7.318;2022-10-16T06:47:50;100715.84;;;16.01;100.00
3917;BME280;1973;50.518;7.318;2022-10-16T06:50:17;100713.06;;;16.01;100.00
3917;BME280;1973;50.518;7.318;2022-10-16T06:52:43;100714.75;;;16.02;100.00
3917;BME280;1973;50.518;7.318;2022-10-16T06:55:10;100721.66;;;16.00;100.00
3917;BME280;1973;50.518;7.318;2022-10-16T06:57:36;100724.69;;;15.98;100.00
3917;BME280;1973;50.518;7.318;2022-10-16T07:00:03;100729.16;;;15.99;100.00
3917;BME280;1973;50.518;7.318;2022-10-16T07:02:29;100719.22;;;16.03;100.00
3917;BME280;1973;50.518;7.318;2022-10-16T07:04:56;100720.31;;;16.02;100.00
3917;BME280;1973;50.518;7.318;2022-10-16T07:07:23;100719.78;;;16.05;100.00
3917;BME280;1973;50.518;7.318;2022-10-16T07:09:51;100726.28;;;16.11;100.00
3917;BME280;1973;50.518;7.318;2022-10-16T07:12:17;100729.13;;;16.16;100.00
3917;BME280;1973;50.518;7.318;2022-10-16T07:14:44;100742.84;;;16.23;100.00
3917;BME280;1973;50.518;7.318;2022-10-16T07:17:10;100764.06;;;16.29;100.00
3917;BME280;1973;50.518;7.318;2022-10-16T07:19:37;100778.63;;;16.36;100.00
3917;BME280;1973;50.518;7.318;2022-10-16T07:22:03;100779.78;;;16.40;100.00
3917;BME280;1973;50.518;7.318;2022-10-16T07:24:31;100779.00;;;16.44;100.00
3917;BME280;1973;50.518;7.318;2022-10-16T07:26:57;100776.59;;;16.48;100.00
3917;BME280;1973;50.518;7.318;2022-10-16T07:29:23;100789.97;;;16.51;100.00
3917;BME280;1973;50.518;7.318;2022-10-16T07:31:50;100793.09;;;16.54;100.00
3917;BME280;1973;50.518;7.318;2022-10-16T07:34:18;100799.00;;;16.58;100.00
3917;BME280;1973;50.518;7.318;2022-10-16T07:36:48;100799.66;;;16.65;100.00
3917;BME280;1973;50.518;7.318;2022-10-16T07:39:14;100806.97;;;16.71;100.00
3917;BME280;1973;50.518;7.318;2022-10-16T07:41:41;100820.97;;;16.76;100.00
3917;BME280;1973;50.518;7.318;2022-10-16T07:44:07;100817.41;;;16.81;100.00
3917;BME280;1973;50.518;7.318;2022-10-16T07:46:35;100822.19;;;16.85;100.00
3917;BME280;1973;50.518;7.318;2022-10-16T07:49:02;100822.78;;;16.87;100.00
3917;BME280;1973;50.518;7.318;2022-10-16T07:51:30;100831.47;;;16.91;100.00
3917;BME280;1973;50.518;7.318;2022-10-16T07:53:57;100840.97;;;16.95;100.00
3917;BME280;1973;50.518;7.318;2022-10-16T07:56:23;100831.88;;;16.99;100.00
3917;BME280;1973;50.518;7.318;2022-10-16T07:58:50;100843.31;;;17.03;100.00
3917;BME280;1973;50.518;7.318;2022-10-16T08:01:17;100850.88;;;17.08;100.00
3917;BME280;1973;50.518;7.318;2022-10-16T08:03:47;100864.00;;;17.12;100.00
3917;BME280;1973;50.518;7.318;2022-10-16T08:06:14;100858.78;;;17.16;100.00
3917;BME280;1973;50.518;7.318;2022-10-16T08:08:41;100860.56;;;17.22;100.00
3917;BME280;1973;50.518;7.318;2022-10-16T08:11:07;100854.72;;;17.23;100.00
3917;BME280;1973;50.518;7.318;2022-10-16T08:13:34;100851.72;;;17.30;100.00
3917;BME280;1973;50.518;7.318;2022-10-16T08:16:01;100849.88;;;17.35;100.00
3917;BME280;1973;50.518;7.318;2022-10-16T08:18:27;100845.19;;;17.41;100.00
3917;BME280;1973;50.518;7.318;2022-10-16T08:20:58;100863.91;;;17.45;100.00
3917;BME280;1973;50.518;7.318;2022-10-16T08:23:26;100864.22;;;17.49;100.00
3917;BME280;1973;50.518;7.318;2022-10-16T08:25:54;100876.53;;;17.53;100.00
3917;BME280;1973;50.518;7.318;2022-10-16T08:28:22;100877.72;;;17.57;100.00
3917;BME280;1973;50.518;7.318;2022-10-16T08:30:48;100880.59;;;17.62;100.00
3917;BME280;1973;50.518;7.318;2022-10-16T08:33:15;100878.69;;;17.68;100.00
3917;BME280;1973;50.518;7.318;2022-10-16T08:35:41;100885.16;;;17.73;100.00
3917;BME280;1973;50.518;7.318;2022-10-16T08:38:08;100891.09;;;17.82;100.00
3917;BME280;1973;50.518;7.318;2022-10-16T08:40:36;100883.66;;;17.87;100.00
3917;BME280;1973;50.518;7.318;2022-10-16T08:43:09;100874.78;;;17.90;100.00
3917;BME280;1973;50.518;7.318;2022-10-16T08:46:29;100899.31;;;17.93;100.00
3917;BME280;1973;50.518;7.318;2022-10-16T08:51:08;100894.91;;;17.97;100.00
3917;BME280;1973;50.518;7.318;2022-10-16T08:53:49;100891.34;;;18.02;100.00
3917;BME280;1973;50.518;7.318;2022-10-16T08:56:17;100902.28;;;18.09;100.00
3917;BME280;1973;50.518;7.318;2022-10-16T08:58:45;100908.16;;;18.12;100.00
3917;BME280;1973;50.518;7.318;2022-10-16T09:01:15;100907.38;;;18.17;100.00
3917;BME280;1973;50.518;7.318;2022-10-16T09:09:46;100902.94;;;18.47;100.00
3917;BME280;1973;50.518;7.318;2022-10-16T09:12:31;100908.88;;;18.56;100.00
3917;BME280;1973;50.518;7.318;2022-10-16T09:15:20;100922.91;;;18.66;100.00
3917;BME280;1973;50.518;7.318;2022-10-16T09:18:15;100920.78;;;18.73;100.00
3917;BME280;1973;50.518;7.318;2022-10-16T09:20:51;100925.81;;;18.76;100.00
3917;BME280;1973;50.518;7.318;2022-10-16T09:23:26;100922.53;;;18.84;100.00
3917;BME280;1973;50.518;7.318;2022-10-16T09:25:54;100917.88;;;18.95;100.00
3917;BME280;1973;50.518;7.318;2022-10-16T09:28:21;100912.34;;;19.05;100.00
3917;BME280;1973;50.518;7.318;2022-10-16T09:30:48;100913.56;;;19.19;100.00
3917;BME280;1973;50.518;7.318;2022-10-16T09:33:18;100910.56;;;19.31;100.00
3917;BME280;1973;50.518;7.318;2022-10-16T09:35:48;100909.75;;;19.40;100.00
3917;BME280;1973;50.518;7.318;2022-10-16T09:40:56;100914.53;;;19.40;100.00
3917;BME280;1973;50.518;7.318;2022-10-16T09:46:05;100913.47;;;19.51;100.00
3917;BME280;1973;50.518;7.318;2022-10-16T09:48:50;100903.16;;;19.57;100.00
3917;BME280;1973;50.518;7.318;2022-10-16T09:51:28;100901.59;;;19.76;100.00
3917;BME280;1973;50.518;7.318;2022-10-16T09:54:01;100907.25;;;20.01;100.00
3917;BME280;1973;50.518;7.318;2022-10-16T09:56:33;100901.16;;;20.24;100.00
3917;BME280;1973;50.518;7.318;2022-10-16T09:59:22;100897.03;;;20.57;100.00
3917;BME280;1973;50.518;7.318;2022-10-16T10:01:54;100895.34;;;20.86;100.00
3917;BME280;1973;50.518;7.318;2022-10-16T10:04:23;100898.13;;;21.12;100.00
3917;BME280;1973;50.518;7.318;2022-10-16T10:06:52;100893.03;;;21.29;100.00
3917;BME280;1973;50.518;7.318;2022-10-16T10:09:22;100904.78;;;21.36;100.00
3917;BME280;1973;50.518;7.318;2022-10-16T10:11:58;100910.31;;;21.56;100.00
3917;BME280;1973;50.518;7.318;2022-10-16T10:14:26;100899.63;;;21.63;100.00
3917;BME280;1973;50.518;7.318;2022-10-16T10:17:13;100903.47;;;21.88;100.00
3917;BME280;1973;50.518;7.318;2022-10-16T10:19:46;100886.81;;;22.06;100.00
3917;BME280;1973;50.518;7.318;2022-10-16T10:35:56;100873.34;;;22.86;100.00
3917;BME280;1973;50.518;7.318;2022-10-16T10:44:21;100870.75;;;22.95;96.05
3917;BME280;1973;50.518;7.318;2022-10-16T10:46:57;100875.81;;;22.93;93.70
3917;BME280;1973;50.518;7.318;2022-10-16T10:54:45;100881.16;;;23.18;88.54
3917;BME280;1973;50.518;7.318;2022-10-16T10:57:21;100893.78;;;22.92;90.89
3917;BME280;1973;50.518;7.318;2022-10-16T11:00:06;100890.44;;;22.90;88.50
3917;BME280;1973;50.518;7.318;2022-10-16T11:07:57;100872.72;;;23.18;92.07
3917;BME280;1973;50.518;7.318;2022-10-16T11:10:28;100872.50;;;23.38;88.57
3917;BME280;1973;50.518;7.318;2022-10-16T11:13:04;100869.97;;;23.42;83.38
3917;BME280;1973;50.518;7.318;2022-10-16T11:15:39;100874.09;;;23.49;86.10
3917;BME280;1973;50.518;7.318;2022-10-16T11:18:16;100878.69;;;23.64;83.40
3917;BME280;1973;50.518;7.318;2022-10-16T11:20:50;100875.88;;;23.64;85.72
3917;BME280;1973;50.518;7.318;2022-10-16T11:25:51;100873.38;;;23.81;85.35
3917;BME280;1973;50.518;7.318;2022-10-16T11:28:37;100878.97;;;23.62;76.01
3917;BME280;1973;50.518;7.318;2022-10-16T11:31:29;100871.44;;;23.58;77.24
3917;BME280;1973;50.518;7.318;2022-10-16T11:34:21;100874.00;;;23.54;78.05
3917;BME280;1973;50.518;7.318;2022-10-16T11:39:58;100883.00;;;23.56;79.51
3917;BME280;1973;50.518;7.318;2022-10-16T11:42:36;100887.22;;;23.77;77.56
3917;BME280;1973;50.518;7.318;2022-10-16T11:47:48;100887.16;;;23.83;77.29
3917;BME280;1973;50.518;7.318;2022-10-16T11:50:36;100884.13;;;23.98;75.63
3917;BME280;1973;50.518;7.318;2022-10-16T11:53:13;100880.13;;;24.22;77.26
3917;BME280;1973;50.518;7.318;2022-10-16T11:55:44;100880.06;;;24.28;75.14
3917;BME280;1973;50.518;7.318;2022-10-16T11:58:22;100875.13;;;24.19;69.44
3917;BME280;1973;50.518;7.318;2022-10-16T12:03:56;100883.47;;;24.24;73.40
3917;BME280;1973;50.518;7.318;2022-10-16T12:09:01;100893.31;;;23.85;74.52
3917;BME280;1973;50.518;7.318;2022-10-16T12:19:23;100882.31;;;23.17;80.81
3917;BME280;1973;50.518;7.318;2022-10-16T12:21:52;100879.34;;;23.03;81.28
3917;BME280;1973;50.518;7.318;2022-10-16T12:24:43;100870.16;;;22.98;80.19
3917;BME280;1973;50.518;7.318;2022-10-16T12:27:32;100862.97;;;23.10;79.46
3917;BME280;1973;50.518;7.318;2022-10-16T12:30:01;100867.19;;;23.60;80.43
3917;BME280;1973;50.518;7.318;2022-10-16T12:32:32;100864.44;;;23.98;77.10
3917;BME280;1973;50.518;7.318;2022-10-16T12:35:24;100863.94;;;24.33;70.54
3917;BME280;1973;50.518;7.318;2022-10-16T12:37:51;100870.56;;;24.42;72.31
3917;BME280;1973;50.518;7.318;2022-10-16T12:42:53;100883.88;;;24.18;73.29
3917;BME280;1973;50.518;7.318;2022-10-16T12:45:31;100889.00;;;24.11;71.08
3917;BME280;1973;50.518;7.318;2022-10-16T12:48:01;100895.72;;;24.15;74.19
3917;BME280;1973;50.518;7.318;2022-10-16T12:50:38;100888.47;;;24.09;73.30
3917;BME280;1973;50.518;7.318;2022-10-16T12:53:36;100892.03;;;23.96;72.61
3917;BME280;1973;50.518;7.318;2022-10-16T12:56:27;100901.22;;;23.83;76.09
3917;BME280;1973;50.518;7.318;2022-10-16T13:02:05;100897.78;;;23.38;78.94
3917;BME280;1973;50.518;7.318;2022-10-16T13:10:40;100876.69;;;23.41;82.16
3917;BME280;1973;50.518;7.318;2022-10-16T13:18:43;100882.53;;;23.49;81.29
3917;BME280;1973;50.518;7.318;2022-10-16T13:24:14;100887.06;;;23.45;82.18
3917;BME280;1973;50.518;7.318;2022-10-16T13:26:55;100880.63;;;23.40;84.19
3917;BME280;1973;50.518;7.318;2022-10-16T13:29:23;100885.47;;;23.34;85.27
3917;BME280;1973;50.518;7.318;2022-10-16T13:31:55;100879.75;;;23.44;84.60
3917;BME280;1973;50.518;7.318;2022-10-16T13:34:22;100876.09;;;23.44;84.84
3917;BME280;1973;50.518;7.318;2022-10-16T13:36:51;100876.69;;;23.41;84.61
3917;BME280;1973;50.518;7.318;2022-10-16T13:39:24;100873.78;;;23.51;85.84
3917;BME280;1973;50.518;7.318;2022-10-16T13:42:01;100878.06;;;23.67;83.00
3917;BME280;1973;50.518;7.318;2022-10-16T13:44:41;100877.38;;;23.56;82.03
3917;BME280;1973;50.518;7.318;2022-10-16T13:47:20;100888.22;;;23.39;83.19
3917;BME280;1973;50.518;7.318;2022-10-16T13:50:03;100879.78;;;23.39;84.23
3917;BME280;1973;50.518;7.318;2022-10-16T13:52:30;100882.94;;;23.33;85.99
3917;BME280;1973;50.518;7.318;2022-10-16T13:54:57;100882.84;;;23.19;86.86
3917;BME280;1973;50.518;7.318;2022-10-16T13:57:27;100879.66;;;23.02;88.07
3917;BME280;1973;50.518;7.318;2022-10-16T13:59:54;100885.91;;;22.94;89.38
3917;BME280;1973;50.518;7.318;2022-10-16T14:02:29;100885.41;;;22.87;90.24
3917;BME280;1973;50.518;7.318;2022-10-16T14:04:57;100895.09;;;22.65;92.54
3917;BME280;1973;50.518;7.318;2022-10-16T14:07:26;100895.53;;;22.49;94.47
3917;BME280;1973;50.518;7.318;2022-10-16T14:09:55;100883.78;;;22.42;95.48
3917;BME280;1973;50.518;7.318;2022-10-16T14:12:23;100889.50;;;22.31;95.55
3917;BME280;1973;50.518;7.318;2022-10-16T14:14:54;100905.56;;;22.16;96.21
3917;BME280;1973;50.518;7.318;2022-10-16T14:17:27;100903.97;;;22.00;97.73
3917;BME280;1973;50.518;7.318;2022-10-16T14:19:56;100909.91;;;21.88;100.00
3917;BME280;1973;50.518;7.318;2022-10-16T14:22:34;100895.91;;;21.83;100.00
3917;BME280;1973;50.518;7.318;2022-10-16T14:25:02;100899.56;;;21.83;100.00
3917;BME280;1973;50.518;7.318;2022-10-16T14:27:32;100905.72;;;21.80;100.00
3917;BME280;1973;50.518;7.318;2022-10-16T14:32:42;100910.84;;;21.58;100.00
3917;BME280;1973;50.518;7.318;2022-10-16T14:37:53;100918.50;;;21.43;100.00
3917;BME280;1973;50.518;7.318;2022-10-16T14:40:23;100908.16;;;21.38;100.00
3917;BME280;1973;50.518;7.318;2022-10-16T14:42:50;100912.09;;;21.32;100.00
3917;BME280;1973;50.518;7.318;2022-10-16T14:45:22;100907.34;;;21.27;100.00
3917;BME280;1973;50.518;7.318;2022-10-16T14:47:55;100904.53;;;21.22;100.00
3917;BME280;1973;50.518;7.318;2022-10-16T14:50:23;100904.25;;;21.19;100.00
3917;BME280;1973;50.518;7.318;2022-10-16T14:52:49;100901.16;;;21.10;100.00
3917;BME280;1973;50.518;7.318;2022-10-16T14:55:16;100909.03;;;21.08;100.00
3917;BME280;1973;50.518;7.318;2022-10-16T14:57:44;100907.63;;;21.06;100.00
3917;BME280;1973;50.518;7.318;2022-10-16T15:00:22;100899.78;;;21.03;100.00